Time;durP1;ratioP1;P1;durP2;ratioP2;P2;SDS_P1;SDS_P2;PMS_P1;PMS_P2;Temp;Humidity;BMP_temperature;BMP_pressure;BME280_temperature;BME280_humidity;BME280_pressure;Samples;Min_cycle;Max_cycle;Signal;HPM_P1;HPM_P2
2022/12/05 00:01:01;;;;;;;;;22.75;18.00;;;;;7.57;100.00;101324.81;5116677;27;46544;-69
2022/12/05 00:03:27;;;;;;;;;25.50;20.00;;;;;7.55;100.00;101316.88;5118466;27;45502;-71
2022/12/05 00:05:52;;;;;;;;;23.00;18.50;;;;;7.50;100.00;101317.56;5114296;27;61534;-72
2022/12/05 00:08:17;;;;;;;;;19.50;15.25;;;;;7.48;100.00;101321.91;5113062;27;61442;-70
2022/12/05 00:10:43;;;;;;;;;26.00;16.00;;;;;7.48;100.00;101325.41;5107021;27;49800;-72
2022/12/05 00:13:09;;;;;;;;;24.25;22.00;;;;;7.50;100.00;101338.59;5116783;27;45534;-72
2022/12/05 00:15:39;;;;;;;;;23.25;15.75;;;;;7.52;100.00;101331.69;5109597;27;45356;-70
2022/12/05 00:18:05;;;;;;;;;28.00;20.00;;;;;7.45;100.00;101329.69;5113617;27;45360;-72
2022/12/05 00:20:30;;;;;;;;;23.75;15.50;;;;;7.50;100.00;101338.59;5113983;27;46319;-73
2022/12/05 00:22:56;;;;;;;;;26.75;21.50;;;;;7.50;100.00;101333.34;5118798;27;45474;-72
2022/12/05 00:25:21;;;;;;;;;27.50;23.25;;;;;7.49;100.00;101336.81;5117514;27;61326;-70
2022/12/05 00:27:46;;;;;;;;;25.75;21.50;;;;;7.48;100.00;101342.91;5117375;27;58507;-72
2022/12/05 00:30:12;;;;;;;;;38.75;19.50;;;;;7.47;100.00;101336.78;5116886;27;68093;-73
2022/12/05 00:32:37;;;;;;;;;26.50;18.50;;;;;7.46;100.00;101336.75;5117243;27;49135;-74
2022/12/05 00:35:03;;;;;;;;;29.75;19.75;;;;;7.43;100.00;101337.50;5116403;27;58835;-74
2022/12/05 00:37:28;;;;;;;;;25.00;20.00;;;;;7.44;100.00;101344.56;5118366;27;45506;-73
2022/12/05 00:39:53;;;;;;;;;26.25;23.00;;;;;7.48;100.00;101349.06;5114177;27;69735;-72
2022/12/05 00:42:18;;;;;;;;;26.00;19.25;;;;;7.48;100.00;101349.06;5111771;27;63593;-74
2022/12/05 00:44:44;;;;;;;;;17.00;16.25;;;;;7.45;100.00;101343.69;5109378;27;47756;-74
2022/12/05 00:47:09;;;;;;;;;27.50;21.25;;;;;7.43;100.00;101337.50;5113542;27;60459;-72
2022/12/05 00:49:35;;;;;;;;;27.50;21.50;;;;;7.42;100.00;101341.00;5114328;27;45975;-72
2022/12/05 00:52:00;;;;;;;;;27.75;23.25;;;;;7.46;100.00;101352.50;5115398;27;45748;-72
2022/12/05 00:54:26;;;;;;;;;24.75;19.75;;;;;7.44;100.00;101355.06;5113480;27;45445;-71
2022/12/05 00:56:55;;;;;;;;;28.00;22.50;;;;;7.44;100.00;101341.03;5109109;27;62846;-72
2022/12/05 00:59:20;;;;;;;;;28.00;19.25;;;;;7.40;100.00;101334.78;5115219;27;46107;-72
2022/12/05 01:01:47;;;;;;;;;27.00;20.50;;;;;7.45;100.00;101346.31;5115643;27;45560;-72
2022/12/05 01:04:16;;;;;;;;;26.00;21.00;;;;;7.40;100.00;101339.16;5117917;27;45387;-72
2022/12/05 01:06:41;;;;;;;;;25.75;19.25;;;;;7.42;100.00;101342.72;5110557;27;45510;-73
2022/12/05 01:09:07;;;;;;;;;27.75;18.50;;;;;7.38;100.00;101351.34;5115540;27;46954;-72
2022/12/05 01:11:33;;;;;;;;;20.50;15.50;;;;;7.38;100.00;101353.97;5116487;27;46149;-71
2022/12/05 01:13:58;;;;;;;;;35.75;21.75;;;;;7.41;100.00;101351.47;5113694;27;51309;-71
2022/12/05 01:16:27;;;;;;;;;23.00;19.25;;;;;7.38;100.00;101359.22;5111260;27;45435;-71
2022/12/05 01:18:53;;;;;;;;;23.75;20.50;;;;;7.42;100.00;101363.75;5111402;27;46456;-71
2022/12/05 01:21:19;;;;;;;;;28.00;20.75;;;;;7.41;100.00;101368.13;5112594;27;45674;-71
2022/12/05 01:23:44;;;;;;;;;25.75;22.25;;;;;7.39;100.00;101363.63;5114321;27;45291;-72
2022/12/05 01:26:12;;;;;;;;;27.25;23.25;;;;;7.37;100.00;101360.97;5117283;27;58240;-73
2022/12/05 01:28:38;;;;;;;;;31.50;21.50;;;;;7.39;100.00;101367.16;5113534;27;46266;-73
2022/12/05 01:31:06;;;;;;;;;26.25;21.75;;;;;7.41;100.00;101378.63;5114265;27;45550;-73
2022/12/05 01:33:32;;;;;;;;;28.00;22.50;;;;;7.40;100.00;101376.81;5109393;27;45366;-72
2022/12/05 01:35:57;;;;;;;;;24.50;18.75;;;;;7.39;100.00;101385.53;5110310;27;45235;-71
2022/12/05 01:38:23;;;;;;;;;26.25;18.00;;;;;7.41;100.00;101393.50;5112815;27;46099;-72
2022/12/05 01:40:48;;;;;;;;;34.50;19.50;;;;;7.36;100.00;101385.47;5109446;27;54050;-74
2022/12/05 01:43:16;;;;;;;;;31.75;19.00;;;;;7.33;100.00;101386.25;5111092;27;45854;-71
2022/12/05 01:45:44;;;;;;;;;23.75;21.75;;;;;7.39;100.00;101398.69;5112615;27;45625;-71
2022/12/05 01:48:15;;;;;;;;;24.25;19.75;;;;;7.34;100.00;101395.91;5113303;27;45294;-71
2022/12/05 01:50:41;;;;;;;;;22.25;16.75;;;;;7.34;100.00;101401.16;5129992;27;45370;-71
2022/12/05 01:53:06;;;;;;;;;36.25;26.00;;;;;7.31;100.00;101403.69;5115722;27;45417;-72
2022/12/05 01:55:33;;;;;;;;;28.00;20.00;;;;;7.33;100.00;101393.22;5107883;27;46487;-73
2022/12/05 01:57:59;;;;;;;;;27.50;18.50;;;;;7.35;100.00;101410.84;5114464;27;45439;-73
2022/12/05 02:00:25;;;;;;;;;33.25;25.00;;;;;7.35;100.00;101426.59;5112988;27;64494;-72
2022/12/05 02:02:57;;;;;;;;;20.75;13.50;;;;;7.37;100.00;101421.38;5115859;27;45279;-72
2022/12/05 02:05:27;;;;;;;;;32.00;24.00;;;;;7.37;100.00;101434.53;5116655;27;45431;-72
2022/12/05 02:07:52;;;;;;;;;25.25;19.00;;;;;7.36;100.00;101440.63;5133138;27;46621;-72
2022/12/05 02:10:18;;;;;;;;;26.25;15.75;;;;;7.32;100.00;101420.34;5114407;27;66863;-72
2022/12/05 02:12:44;;;;;;;;;27.25;23.25;;;;;7.35;100.00;101428.34;5117416;27;45316;-72
2022/12/05 02:15:18;;;;;;;;;21.75;20.50;;;;;7.34;100.00;101430.03;5116827;27;45344;-72
2022/12/05 02:17:43;;;;;;;;;28.50;24.50;;;;;7.33;100.00;101430.91;5109523;27;45867;-71
2022/12/05 02:20:09;;;;;;;;;25.25;18.25;;;;;7.33;100.00;101425.63;5111178;27;45467;-71
2022/12/05 02:22:52;;;;;;;;;33.75;20.75;;;;;7.32;100.00;101428.22;5114823;27;45777;-73
2022/12/05 02:25:48;;;;;;;;;30.50;24.00;;;;;7.29;100.00;101422.84;5117443;27;45399;-72
2022/12/05 02:28:29;;;;;;;;;24.00;21.25;;;;;7.28;100.00;101442.97;5116493;27;45719;-72
2022/12/05 02:30:59;;;;;;;;;37.00;24.00;;;;;7.26;100.00;101434.16;5115252;27;45543;-71
2022/12/05 02:33:30;;;;;;;;;27.00;22.75;;;;;7.25;100.00;101437.63;5116445;27;45428;-72
2022/12/05 02:36:07;;;;;;;;;27.50;22.50;;;;;7.24;100.00;101435.81;5112830;27;45431;-71
2022/12/05 02:39:08;;;;;;;;;32.50;20.00;;;;;7.23;100.00;101441.03;5111320;27;45270;-73
2022/12/05 02:41:50;;;;;;;;;38.50;24.00;;;;;7.22;100.00;101434.91;5095010;27;45558;-73
2022/12/05 02:44:30;;;;;;;;;34.50;25.25;;;;;7.19;100.00;101436.50;5111837;27;45425;-72
2022/12/05 02:46:55;;;;;;;;;24.25;21.50;;;;;7.14;100.00;101428.50;5132477;27;45554;-72
2022/12/05 02:49:24;;;;;;;;;31.00;21.50;;;;;7.17;100.00;101432.94;5112072;27;45944;-71
2022/12/05 02:51:54;;;;;;;;;37.00;27.50;;;;;7.14;100.00;101432.84;5111136;27;45386;-72
2022/12/05 02:54:23;;;;;;;;;27.50;21.00;;;;;7.13;100.00;101425.81;5115727;27;45560;-73
2022/12/05 02:56:48;;;;;;;;;31.00;24.00;;;;;7.12;100.00;101430.16;5116755;27;45519;-74
2022/12/05 02:59:14;;;;;;;;;32.50;24.50;;;;;7.18;100.00;101432.09;5119883;27;45689;-72
2022/12/05 03:01:39;;;;;;;;;30.00;24.25;;;;;7.14;100.00;101427.59;5118076;27;47512;-71
2022/12/05 03:04:06;;;;;;;;;32.00;22.75;;;;;7.17;100.00;101439.09;5120184;27;45280;-72
2022/12/05 03:06:34;;;;;;;;;36.25;28.25;;;;;7.15;100.00;101438.16;5118933;27;56573;-72
2022/12/05 03:09:06;;;;;;;;;40.25;26.50;;;;;7.16;100.00;101445.19;5115713;27;46397;-72
2022/12/05 03:11:45;;;;;;;;;32.50;26.00;;;;;7.15;100.00;101442.53;5115565;27;45569;-72
2022/12/05 03:14:20;;;;;;;;;38.00;25.25;;;;;7.11;100.00;101430.13;5118994;27;45387;-72
2022/12/05 03:16:54;;;;;;;;;27.25;21.50;;;;;7.11;100.00;101435.38;5118602;27;45217;-72
2022/12/05 03:19:29;;;;;;;;;29.50;26.00;;;;;7.14;100.00;101439.00;5119299;27;45782;-73
2022/12/05 03:22:00;;;;;;;;;30.25;26.00;;;;;7.14;100.00;101440.72;5112787;27;45464;-72
2022/12/05 03:24:26;;;;;;;;;32.00;22.50;;;;;7.12;100.00;101443.28;5120180;27;45298;-72
2022/12/05 03:27:10;;;;;;;;;31.00;27.25;;;;;7.14;100.00;101445.97;5117840;27;62158;-72
2022/12/05 03:29:47;;;;;;;;;30.75;27.00;;;;;7.14;100.00;101448.59;5117432;27;47168;-72
2022/12/05 03:32:23;;;;;;;;;34.00;24.00;;;;;7.10;100.00;101447.63;5099095;27;45412;-74
2022/12/05 03:34:50;;;;;;;;;36.00;22.50;;;;;7.07;100.00;101458.88;5111827;27;45571;-72
2022/12/05 03:37:42;;;;;;;;;35.00;26.50;;;;;7.03;100.00;101458.72;5109989;27;45210;-72
2022/12/05 03:40:18;;;;;;;;;35.00;25.50;;;;;7.01;100.00;101449.91;5112412;27;46163;-71
2022/12/05 03:42:51;;;;;;;;;40.25;27.50;;;;;7.01;100.00;101456.03;5110557;27;45263;-73
2022/12/05 03:45:21;;;;;;;;;31.25;24.25;;;;;6.97;100.00;101455.88;5116353;27;45370;-72
2022/12/05 03:47:55;;;;;;;;;36.25;27.50;;;;;7.00;100.00;101462.16;5118349;27;45657;-73
2022/12/05 03:50:25;;;;;;;;;32.25;28.25;;;;;7.01;100.00;101463.03;5118292;27;45494;-72
2022/12/05 03:53:04;;;;;;;;;25.75;18.75;;;;;6.97;100.00;101453.25;5113356;27;47055;-72
2022/12/05 03:55:32;;;;;;;;;35.50;30.00;;;;;7.00;100.00;101469.13;5118463;27;45403;-71
2022/12/05 03:58:02;;;;;;;;;38.00;27.00;;;;;6.96;100.00;101459.34;5117330;27;45719;-72
2022/12/05 04:00:31;;;;;;;;;35.00;26.50;;;;;6.95;100.00;101468.06;5117129;27;45350;-71
2022/12/05 04:03:10;;;;;;;;;27.00;22.00;;;;;6.94;100.00;101471.53;5117582;27;45967;-72
2022/12/05 04:06:02;;;;;;;;;33.50;27.50;;;;;6.92;100.00;101470.56;5117025;27;45519;-71
2022/12/05 04:08:31;;;;;;;;;26.00;20.00;;;;;6.90;100.00;101475.78;5115315;27;45338;-73
2022/12/05 04:11:00;;;;;;;;;39.75;29.00;;;;;6.93;100.00;101472.38;5113199;27;46398;-73
2022/12/05 04:13:35;;;;;;;;;41.00;25.00;;;;;6.88;100.00;101466.06;5115831;27;45361;-72
2022/12/05 04:19:22;;;;;;;;;39.00;29.75;;;;;6.88;100.00;101480.09;5118558;27;45458;-72
2022/12/05 04:21:51;;;;;;;;;26.50;21.00;;;;;6.83;100.00;101479.91;5112637;27;46332;-74
2022/12/05 04:27:22;;;;;;;;;37.75;24.75;;;;;6.87;100.00;101485.25;5118083;27;45498;-71
2022/12/05 04:30:04;;;;;;;;;37.25;22.50;;;;;6.82;100.00;101477.25;5117137;27;45368;-71
2022/12/05 04:32:54;;;;;;;;;34.25;25.50;;;;;6.89;100.00;101486.22;5113442;27;46040;-71
2022/12/05 04:35:24;;;;;;;;;37.50;28.00;;;;;6.89;100.00;101478.34;5114904;27;45453;-73
2022/12/05 04:37:53;;;;;;;;;34.00;26.00;;;;;6.93;100.00;101488.13;5118775;27;45210;-72
2022/12/05 04:40:23;;;;;;;;;33.75;26.75;;;;;6.90;100.00;101480.13;5114276;27;45295;-71
2022/12/05 04:42:50;;;;;;;;;30.25;20.50;;;;;6.95;100.00;101486.44;5111672;27;46618;-72
2022/12/05 04:45:17;;;;;;;;;30.75;24.25;;;;;6.94;100.00;101490.81;5117412;27;45410;-69
2022/12/05 04:47:48;;;;;;;;;34.75;26.00;;;;;6.92;100.00;101486.31;5117759;27;45529;-73
2022/12/05 04:50:15;;;;;;;;;27.00;23.00;;;;;6.89;100.00;101494.09;5115200;27;45417;-71
2022/12/05 04:52:42;;;;;;;;;33.50;21.00;;;;;6.92;100.00;101492.47;5096010;27;47423;-72
2022/12/05 04:55:11;;;;;;;;;31.00;24.50;;;;;6.88;100.00;101490.59;5108781;27;45585;-71
2022/12/05 04:57:51;;;;;;;;;29.75;24.00;;;;;6.91;100.00;101506.44;5115137;27;45417;-72
2022/12/05 05:00:17;;;;;;;;;32.25;24.25;;;;;6.89;100.00;101509.84;5114541;27;45615;-72
2022/12/05 05:02:51;;;;;;;;;27.50;24.25;;;;;6.87;100.00;101514.13;5117057;27;46059;-71
2022/12/05 05:05:18;;;;;;;;;34.25;23.50;;;;;6.82;100.00;101506.13;5108816;27;45449;-72
2022/12/05 05:07:45;;;;;;;;;36.75;23.75;;;;;6.86;100.00;101509.72;5116112;27;45503;-72
2022/12/05 05:10:15;;;;;;;;;29.50;23.25;;;;;6.87;100.00;101516.75;5117099;27;45993;-71
2022/12/05 05:12:40;;;;;;;;;31.00;19.50;;;;;6.86;100.00;101501.84;5116424;27;46111;-72
2022/12/05 05:15:06;;;;;;;;;32.75;27.25;;;;;6.83;100.00;101502.66;5117139;27;50558;-72
2022/12/05 05:17:31;;;;;;;;;23.25;18.00;;;;;6.84;100.00;101507.06;5117691;27;45377;-72
2022/12/05 05:20:22;;;;;;;;;26.25;20.00;;;;;6.87;100.00;101511.50;5110230;27;57602;-73
2022/12/05 05:22:42;;;;;;;;;32.00;20.00;;;;;6.83;100.00;101500.03;5117112;27;45331;-72
2022/12/05 05:25:07;;;;;;;;;28.25;22.00;;;;;6.87;100.00;101511.50;5112576;27;68309;-71
2022/12/05 05:27:32;;;;;;;;;26.75;21.25;;;;;6.83;100.00;101510.53;5108238;27;63884;-72
2022/12/05 05:29:58;;;;;;;;;24.75;20.75;;;;;6.86;100.00;101522.84;5115544;27;54139;-71
2022/12/05 05:32:23;;;;;;;;;37.25;21.00;;;;;6.85;100.00;101521.06;5116855;27;69985;-71
2022/12/05 05:34:48;;;;;;;;;33.25;24.00;;;;;6.82;100.00;101520.13;5116082;27;61173;-73
2022/12/05 05:37:14;;;;;;;;;21.50;17.25;;;;;6.85;100.00;101523.69;5115874;27;63374;-72
2022/12/05 05:39:39;;;;;;;;;30.00;20.75;;;;;6.83;100.00;101523.66;5115732;27;45425;-73
2022/12/05 05:42:04;;;;;;;;;34.00;20.50;;;;;6.85;100.00;101531.56;5112700;27;69231;-72
2022/12/05 05:44:29;;;;;;;;;28.25;22.00;;;;;6.81;100.00;101527.94;5115322;27;62499;-72
2022/12/05 05:46:55;;;;;;;;;32.00;21.25;;;;;6.80;100.00;101529.66;5116777;27;66867;-72
2022/12/05 05:49:20;;;;;;;;;34.25;21.75;;;;;6.77;100.00;101529.56;5115402;27;62289;-74
2022/12/05 05:51:45;;;;;;;;;31.75;26.50;;;;;6.81;100.00;101541.94;5116739;27;64907;-71
2022/12/05 05:54:11;;;;;;;;;44.00;28.25;;;;;6.77;100.00;101532.19;5116886;27;66210;-72
2022/12/05 05:56:38;;;;;;;;;26.25;22.00;;;;;6.79;100.00;101541.00;5117346;27;45412;-72
2022/12/05 05:59:04;;;;;;;;;33.75;27.25;;;;;6.79;100.00;101542.75;5115797;27;45467;-71
2022/12/05 06:01:29;;;;;;;;;31.75;23.50;;;;;6.80;100.00;101547.16;5117222;27;46574;-72
2022/12/05 06:03:55;;;;;;;;;28.50;23.75;;;;;6.81;100.00;101543.69;5115852;27;45415;-72
2022/12/05 06:06:21;;;;;;;;;25.50;19.25;;;;;6.81;100.00;101544.56;5116335;27;45546;-72
2022/12/05 06:08:46;;;;;;;;;31.50;19.75;;;;;6.78;100.00;101538.31;5115027;27;45421;-71
2022/12/05 06:11:15;;;;;;;;;27.25;18.75;;;;;6.81;100.00;101547.19;5116191;27;45724;-74
2022/12/05 06:13:41;;;;;;;;;27.75;18.00;;;;;6.80;100.00;101553.28;5115760;27;45441;-72
2022/12/05 06:16:07;;;;;;;;;17.00;15.25;;;;;6.74;100.00;101542.56;5115584;27;45404;-72
2022/12/05 06:18:33;;;;;;;;;26.75;19.25;;;;;6.75;100.00;101554.84;5111083;27;45388;-73
2022/12/05 06:20:58;;;;;;;;;28.00;17.25;;;;;6.70;100.00;101548.53;5110847;27;45593;-72
2022/12/05 06:23:25;;;;;;;;;35.50;21.75;;;;;6.64;100.00;101550.91;5106846;27;47092;-72
2022/12/05 06:25:51;;;;;;;;;33.00;21.50;;;;;6.72;100.00;101560.00;5115447;27;45570;-73
2022/12/05 06:28:18;;;;;;;;;30.00;22.50;;;;;6.68;100.00;101551.94;5114965;27;45346;-72
2022/12/05 06:30:44;;;;;;;;;24.25;15.00;;;;;6.72;100.00;101569.59;5115528;27;45568;-72
2022/12/05 06:33:09;;;;;;;;;25.00;17.50;;;;;6.67;100.00;101564.16;5110635;27;45420;-72
2022/12/05 06:35:35;;;;;;;;;31.50;23.25;;;;;6.72;100.00;101577.47;5111741;27;52074;-71
2022/12/05 06:38:00;;;;;;;;;28.75;18.00;;;;;6.71;100.00;101583.53;5113407;27;57041;-72
2022/12/05 06:40:26;;;;;;;;;27.25;22.75;;;;;6.71;100.00;101576.56;5112672;27;46356;-72
2022/12/05 06:42:51;;;;;;;;;32.00;25.00;;;;;6.72;100.00;101581.00;5112844;27;58624;-73
2022/12/05 06:45:16;;;;;;;;;30.50;23.50;;;;;6.73;100.00;101581.88;5110967;27;53623;-73
2022/12/05 06:47:42;;;;;;;;;34.00;28.75;;;;;6.73;100.00;101590.66;5115227;27;45269;-73
2022/12/05 06:50:08;;;;;;;;;21.75;19.75;;;;;6.68;100.00;101579.06;5116078;27;47357;-71
2022/12/05 06:52:33;;;;;;;;;32.50;21.00;;;;;6.72;100.00;101594.09;5115063;27;45429;-72
2022/12/05 06:54:58;;;;;;;;;30.25;23.25;;;;;6.73;100.00;101597.63;5115677;27;56358;-72
2022/12/05 06:57:24;;;;;;;;;31.25;20.25;;;;;6.78;100.00;101596.97;5110707;27;45222;-73
2022/12/05 06:59:50;;;;;;;;;34.25;24.75;;;;;6.73;100.00;101595.88;5114356;27;46281;-71
2022/12/05 07:02:15;;;;;;;;;26.75;19.75;;;;;6.75;100.00;101596.84;5108832;27;45417;-71
2022/12/05 07:04:40;;;;;;;;;30.00;17.50;;;;;6.78;100.00;101604.84;5109335;27;59918;-71
2022/12/05 07:07:06;;;;;;;;;25.75;21.50;;;;;6.79;100.00;101604.00;5106470;27;50312;-71
2022/12/05 07:09:50;;;;;;;;;27.75;22.75;;;;;6.78;100.00;101607.47;5111916;27;46493;-69
2022/12/05 07:12:16;;;;;;;;;28.50;18.75;;;;;6.76;100.00;101613.47;5111947;27;45565;-71
2022/12/05 07:14:42;;;;;;;;;26.00;22.00;;;;;6.74;100.00;101616.03;5112959;27;45600;-72
2022/12/05 07:17:08;;;;;;;;;34.75;23.00;;;;;6.67;100.00;101614.03;5113745;27;50922;-72
2022/12/05 07:19:34;;;;;;;;;29.75;20.25;;;;;6.61;100.00;101603.28;5110013;27;46216;-71
2022/12/05 07:21:59;;;;;;;;;29.75;21.50;;;;;6.70;100.00;101628.97;5105487;27;46261;-71
2022/12/05 07:24:24;;;;;;;;;36.25;25.00;;;;;6.67;100.00;101624.53;5108667;27;61447;-72
2022/12/05 07:26:50;;;;;;;;;33.00;25.50;;;;;6.66;100.00;101628.00;5113964;27;45577;-71
2022/12/05 07:29:15;;;;;;;;;29.00;21.75;;;;;6.67;100.00;101627.16;5113463;27;46059;-70
2022/12/05 07:31:41;;;;;;;;;32.50;25.25;;;;;6.62;100.00;101628.69;5112147;27;64962;-72
2022/12/05 07:34:06;;;;;;;;;30.00;25.50;;;;;6.66;100.00;101630.63;5115169;27;45442;-73
2022/12/05 07:36:31;;;;;;;;;31.75;19.25;;;;;6.62;100.00;101623.44;5110904;27;55106;-73
2022/12/05 07:38:57;;;;;;;;;37.25;25.50;;;;;6.65;100.00;101639.28;5124385;27;45770;-73
2022/12/05 07:41:28;;;;;;;;;28.75;23.25;;;;;6.63;100.00;101626.97;5102275;27;45537;-72
2022/12/05 07:43:55;;;;;;;;;27.75;23.25;;;;;6.67;100.00;101640.28;5108260;27;45394;-72
2022/12/05 07:46:21;;;;;;;;;29.00;22.00;;;;;6.66;100.00;101638.47;5113176;27;45569;-73
2022/12/05 07:48:47;;;;;;;;;29.00;21.25;;;;;6.64;100.00;101641.88;5096395;27;47360;-73
2022/12/05 07:51:13;;;;;;;;;33.75;21.00;;;;;6.60;100.00;101632.97;5113354;27;45636;-73
2022/12/05 07:53:40;;;;;;;;;39.00;28.00;;;;;6.63;100.00;101648.84;5114378;27;45604;-73
2022/12/05 07:56:07;;;;;;;;;29.50;25.25;;;;;6.63;100.00;101642.72;5106240;27;45559;-73
2022/12/05 07:58:33;;;;;;;;;33.25;26.50;;;;;6.58;100.00;101647.75;5110484;27;46592;-73
2022/12/05 08:01:10;;;;;;;;;34.00;29.25;;;;;6.60;100.00;101656.56;5108863;27;45729;-72
2022/12/05 08:03:38;;;;;;;;;31.00;28.75;;;;;6.60;100.00;101668.81;5107944;27;45455;-72
2022/12/05 08:06:25;;;;;;;;;37.50;32.50;;;;;6.60;100.00;101658.31;5112427;27;45504;-72
2022/12/05 08:08:50;;;;;;;;;41.00;31.00;;;;;6.55;100.00;101660.75;5112984;27;46626;-71
2022/12/05 08:11:22;;;;;;;;;36.00;29.75;;;;;6.61;100.00;101671.53;5114724;27;45523;-72
2022/12/05 08:13:48;;;;;;;;;40.00;26.00;;;;;6.61;100.00;101678.50;5112106;27;45485;-72
2022/12/05 08:16:16;;;;;;;;;43.75;29.75;;;;;6.60;100.00;101674.94;5114322;27;45885;-71
2022/12/05 08:18:42;;;;;;;;;37.00;26.50;;;;;6.63;100.00;101685.59;5111519;27;46609;-71
2022/12/05 08:21:10;;;;;;;;;32.25;25.50;;;;;6.57;100.00;101680.09;5107719;27;45345;-72
2022/12/05 08:23:36;;;;;;;;;27.75;25.75;;;;;6.65;100.00;101693.50;5114369;27;45367;-72
2022/12/05 08:26:04;;;;;;;;;50.50;27.00;;;;;6.66;100.00;101688.34;5116389;27;45299;-73
2022/12/05 08:28:29;;;;;;;;;36.75;26.00;;;;;6.64;100.00;101683.84;5112923;27;47543;-72
2022/12/05 08:30:55;;;;;;;;;41.25;26.75;;;;;6.66;100.00;101687.41;5112955;27;45601;-73
2022/12/05 08:33:20;;;;;;;;;36.50;29.00;;;;;6.61;100.00;101684.63;5110450;27;62157;-73
2022/12/05 08:35:45;;;;;;;;;38.75;28.50;;;;;6.64;100.00;101695.25;5106075;27;59295;-73
2022/12/05 08:38:11;;;;;;;;;41.75;30.75;;;;;6.64;100.00;101694.34;5109660;27;71460;-73
2022/12/05 08:40:36;;;;;;;;;37.75;29.25;;;;;6.64;100.00;101692.63;5106522;27;63988;-73
2022/12/05 08:43:01;;;;;;;;;35.75;19.00;;;;;6.60;100.00;101689.78;5110170;27;54746;-73
2022/12/05 08:45:27;;;;;;;;;27.50;20.50;;;;;6.64;100.00;101691.72;5112072;27;59889;-72
2022/12/05 08:47:52;;;;;;;;;41.25;33.50;;;;;6.62;100.00;101693.41;5106239;27;61387;-71
2022/12/05 08:50:17;;;;;;;;;44.75;28.50;;;;;6.66;100.00;101695.28;5101864;27;64480;-74
2022/12/05 08:52:43;;;;;;;;;36.50;26.00;;;;;6.67;100.00;101699.72;5111640;27;61172;-73
2022/12/05 08:55:08;;;;;;;;;37.75;24.75;;;;;6.70;100.00;101697.22;5110680;27;45506;-73
2022/12/05 08:57:33;;;;;;;;;40.00;30.50;;;;;6.69;100.00;101693.69;5113857;27;46578;-77
2022/12/05 08:59:59;;;;;;;;;29.00;18.00;;;;;6.62;100.00;101682.91;5110549;27;60777;-73
2022/12/05 09:02:24;;;;;;;;;38.75;26.25;;;;;6.74;100.00;101704.38;5113297;27;45580;-74
2022/12/05 09:04:51;;;;;;;;;31.25;21.00;;;;;6.75;100.00;101707.06;5107392;27;56710;-73
2022/12/05 09:07:16;;;;;;;;;33.75;25.75;;;;;6.72;100.00;101706.06;5108810;27;45709;-74
2022/12/05 09:09:42;;;;;;;;;35.75;28.75;;;;;6.80;100.00;101713.41;5111076;27;63128;-73
2022/12/05 09:12:07;;;;;;;;;41.50;29.50;;;;;6.76;100.00;101707.97;5108027;27;60864;-74
2022/12/05 09:14:32;;;;;;;;;45.00;30.00;;;;;6.80;100.00;101709.88;5111269;27;45450;-75
2022/12/05 09:16:59;;;;;;;;;33.50;28.00;;;;;6.85;100.00;101713.59;5107774;27;68061;-74
2022/12/05 09:19:26;;;;;;;;;34.00;26.50;;;;;6.89;100.00;101712.88;5105614;27;45374;-73
2022/12/05 09:21:52;;;;;;;;;30.25;24.25;;;;;6.90;100.00;101711.16;5105000;27;45527;-73
2022/12/05 09:24:17;;;;;;;;;36.75;24.00;;;;;6.89;100.00;101709.38;5105774;27;45481;-73
2022/12/05 09:26:43;;;;;;;;;38.75;32.75;;;;;6.90;100.00;101714.66;5104638;27;46439;-73
2022/12/05 09:29:09;;;;;;;;;42.00;28.75;;;;;6.94;100.00;101720.94;5105374;27;65341;-74
2022/12/05 09:31:35;;;;;;;;;39.25;29.75;;;;;6.97;100.00;101723.69;5108245;27;46853;-74
2022/12/05 09:34:01;;;;;;;;;35.75;25.50;;;;;6.95;100.00;101720.09;5104291;27;45939;-75
2022/12/05 09:36:29;;;;;;;;;40.75;25.50;;;;;7.02;100.00;101732.63;5106608;27;65131;-74
2022/12/05 09:38:58;;;;;;;;;36.25;27.75;;;;;7.03;100.00;101730.09;5112298;27;45554;-74
2022/12/05 09:44:49;;;;;;;;;34.50;25.50;;;;;7.06;100.00;101730.19;5111626;27;45445;-73
2022/12/05 09:47:26;;;;;;;;;41.00;30.50;;;;;7.04;100.00;101733.59;5085641;27;47618;-74
2022/12/05 09:50:16;;;;;;;;;42.00;33.00;;;;;7.06;100.00;101737.19;5112145;27;45557;-75
2022/12/05 09:53:23;;;;;;;;;41.50;35.00;;;;;7.09;100.00;101738.22;5110176;27;45498;-75
2022/12/05 09:55:52;;;;;;;;;35.25;27.50;;;;;7.00;100.00;101721.19;5104987;27;45433;-72
2022/12/05 09:58:35;;;;;;;;;36.25;30.00;;;;;7.16;100.00;101735.81;5108789;27;46493;-74
2022/12/05 10:01:28;;;;;;;;;26.75;21.25;;;;;7.17;100.00;101743.75;5105541;27;45478;-75
2022/12/05 10:04:12;;;;;;;;;39.00;32.75;;;;;7.20;100.00;101743.00;5105349;27;45613;-74
2022/12/05 10:06:42;;;;;;;;;38.75;25.50;;;;;7.22;100.00;101742.19;5107889;27;45535;-74
2022/12/05 10:09:33;;;;;;;;;42.25;27.00;;;;;7.24;100.00;101739.63;5107566;27;45458;-73
2022/12/05 10:12:05;;;;;;;;;34.50;26.00;;;;;7.25;100.00;101752.84;5109583;27;45596;-75
2022/12/05 10:14:47;;;;;;;;;31.50;26.50;;;;;7.28;100.00;101749.41;5107207;27;45456;-74
2022/12/05 10:17:24;;;;;;;;;42.25;24.75;;;;;7.29;100.00;101745.94;5096799;27;45694;-73
2022/12/05 10:19:52;;;;;;;;;41.75;31.75;;;;;7.35;100.00;101752.38;5108623;27;45538;-75
2022/12/05 10:22:29;;;;;;;;;36.25;29.00;;;;;7.37;100.00;101751.53;5104806;27;45361;-75
2022/12/05 10:25:00;;;;;;;;;52.25;34.75;;;;;7.39;100.00;101748.09;5107492;27;45573;-74
2022/12/05 10:27:51;;;;;;;;;35.75;29.50;;;;;7.43;100.00;101743.88;5109541;27;45623;-73
2022/12/05 10:30:18;;;;;;;;;39.50;28.25;;;;;7.41;100.00;101743.81;5102194;27;46577;-73
2022/12/05 10:32:58;;;;;;;;;48.25;34.00;;;;;7.43;100.00;101747.38;5104605;27;45456;-73
2022/12/05 10:35:25;;;;;;;;;38.00;29.50;;;;;7.45;100.00;101742.19;5110074;27;45553;-74
2022/12/05 10:37:53;;;;;;;;;47.25;33.50;;;;;7.45;100.00;101744.81;5107469;27;45483;-74
2022/12/05 10:40:19;;;;;;;;;45.00;32.00;;;;;7.44;100.00;101743.03;5106788;27;46677;-72
2022/12/05 10:42:46;;;;;;;;;41.00;27.75;;;;;7.49;100.00;101746.72;5110090;27;45504;-73
2022/12/05 10:45:18;;;;;;;;;36.00;31.25;;;;;7.52;100.00;101738.97;5111884;27;45464;-73
2022/12/05 10:47:43;;;;;;;;;43.00;33.50;;;;;7.54;100.00;101734.66;5105704;27;45959;-73
2022/12/05 10:50:22;;;;;;;;;45.50;31.75;;;;;7.57;100.00;101740.94;5105963;27;46115;-72
2022/12/05 10:52:48;;;;;;;;;39.00;30.75;;;;;7.61;100.00;101739.28;5112821;27;45303;-73
2022/12/05 10:55:16;;;;;;;;;39.50;31.50;;;;;7.58;100.00;101733.94;5107226;27;49366;-72
2022/12/05 10:57:41;;;;;;;;;46.00;37.25;;;;;7.57;100.00;101740.03;5109789;27;45591;-72
2022/12/05 11:00:14;;;;;;;;;45.75;35.25;;;;;7.47;100.00;101730.03;5106122;27;69901;-74
2022/12/05 11:02:40;;;;;;;;;37.00;29.75;;;;;7.61;100.00;101755.06;5110393;27;46488;-72
2022/12/05 11:05:06;;;;;;;;;40.75;28.25;;;;;7.59;100.00;101751.50;5110963;27;45412;-73
2022/12/05 11:07:43;;;;;;;;;31.25;26.50;;;;;7.52;100.00;101744.22;5106835;27;45753;-73
2022/12/05 11:10:32;;;;;;;;;43.25;32.25;;;;;7.52;100.00;101749.47;5102183;27;45645;-73
2022/12/05 11:12:59;;;;;;;;;38.25;32.00;;;;;7.45;100.00;101745.69;5099729;27;45503;-73
2022/12/05 11:15:27;;;;;;;;;42.75;29.50;;;;;7.44;100.00;101743.03;5098296;27;45843;-75
2022/12/05 11:17:54;;;;;;;;;29.25;27.25;;;;;7.40;100.00;101730.59;5103110;27;45549;-75
2022/12/05 11:20:20;;;;;;;;;44.50;29.00;;;;;7.44;100.00;101751.81;5109192;27;47524;-73
2022/12/05 11:22:48;;;;;;;;;49.00;37.00;;;;;7.45;100.00;101752.69;5103547;27;45510;-74
2022/12/05 11:25:43;;;;;;;;;41.25;36.25;;;;;7.45;100.00;101757.94;5116726;27;45351;-71
2022/12/05 11:28:17;;;;;;;;;47.00;31.25;;;;;7.45;100.00;101757.94;5174571;22;59934;-74